Time;durP1;ratioP1;P1;durP2;ratioP2;P2;SDS_P1;SDS_P2;PMS_P1;PMS_P2;Temp;Humidity;BMP_temperature;BMP_pressure;BME280_temperature;BME280_humidity;BME280_pressure;Samples;Min_cycle;Max_cycle;Signal;HPM_P1;HPM_P2
2021/05/17 00:06:08;;;;;;;5.07;1.17;;;12.00;99.90;;;;;;6052788;23;20203;-89
2021/05/17 00:08:35;;;;;;;3.10;1.20;;;12.00;99.90;;;;;;6106554;23;20017;-88
2021/05/17 00:11:03;;;;;;;5.03;1.25;;;11.80;99.90;;;;;;6126574;23;20014;-89
2021/05/17 01:27:12;;;;;;;4.95;1.50;;;10.20;99.90;;;;;;6088068;23;20227;-85
2021/05/17 01:29:40;;;;;;;4.55;1.20;;;10.10;99.90;;;;;;6097167;23;20021;-87
2021/05/17 01:32:09;;;;;;;5.28;1.75;;;10.10;99.90;;;;;;6097402;23;20021;-85
2021/05/17 02:01:05;;;;;;;2.83;2.00;;;10.60;99.90;;;;;;6029696;23;20010;-87
2021/05/17 02:06:29;;;;;;;5.38;1.38;;;10.60;99.90;;;;;;6002559;23;21039;-82
2021/05/17 02:08:56;;;;;;;3.67;1.40;;;10.60;99.90;;;;;;6049593;23;20018;-87
2021/05/17 02:11:25;;;;;;;5.97;1.70;;;10.50;99.90;;;;;;6070625;23;20006;-85
2021/05/17 02:14:06;;;;;;;3.47;1.77;;;10.50;99.90;;;;;;6072490;23;20021;-84
2021/05/17 02:37:08;;;;;;;4.22;1.52;;;10.40;99.90;;;;;;6031716;23;20056;-83
2021/05/17 02:42:28;;;;;;;2.50;1.40;;;10.20;99.90;;;;;;6093256;23;19937;-86
2021/05/17 02:44:56;;;;;;;4.68;1.33;;;10.10;99.90;;;;;;6108442;23;20010;-84
2021/05/17 02:47:24;;;;;;;7.85;2.55;;;10.10;99.90;;;;;;6155978;23;20005;-84
2021/05/17 02:49:53;;;;;;;1.90;1.20;;;10.00;99.90;;;;;;6108202;23;20017;-84
2021/05/17 02:55:28;;;;;;;5.90;2.25;;;10.00;99.90;;;;;;6012314;23;20011;-83
2021/05/17 02:58:04;;;;;;;7.47;3.03;;;9.90;99.90;;;;;;6011842;24;20015;-82
2021/05/17 03:00:33;;;;;;;3.90;1.48;;;9.90;99.90;;;;;;6011885;23;20004;-83
2021/05/17 03:03:06;;;;;;;4.70;1.60;;;9.90;99.90;;;;;;6104864;23;20013;-84
2021/05/17 03:05:42;;;;;;;3.10;1.40;;;9.90;99.90;;;;;;6107718;23;20010;-86
2021/05/17 03:08:16;;;;;;;3.13;1.40;;;9.90;99.90;;;;;;6132015;23;20009;-86
2021/05/17 03:10:46;;;;;;;7.82;2.88;;;9.80;99.90;;;;;;6108441;23;20002;-83
2021/05/17 03:13:17;;;;;;;3.42;1.40;;;10.00;99.90;;;;;;6108757;23;20010;-83
2021/05/17 03:15:47;;;;;;;7.88;1.50;;;9.90;99.90;;;;;;6108383;23;20002;-82
2021/05/17 03:18:14;;;;;;;2.50;1.20;;;10.10;99.90;;;;;;6132528;23;20006;-82
2021/05/17 03:20:42;;;;;;;3.03;1.30;;;10.00;99.90;;;;;;6108555;23;20013;-82
2021/05/17 03:23:12;;;;;;;3.38;1.20;;;10.00;99.90;;;;;;6132471;23;20009;-81
2021/05/17 03:25:43;;;;;;;10.95;1.55;;;10.00;99.90;;;;;;6130630;23;20013;-82
2021/05/17 03:28:11;;;;;;;5.30;1.30;;;10.00;99.90;;;;;;6131887;23;20017;-82
2021/05/17 03:30:39;;;;;;;11.43;2.00;;;10.10;99.90;;;;;;6107055;23;20021;-81
2021/05/17 03:33:09;;;;;;;5.63;1.35;;;10.00;99.90;;;;;;6131789;23;20013;-81
2021/05/17 03:35:37;;;;;;;4.00;1.33;;;10.10;99.90;;;;;;6132475;23;20002;-83
2021/05/17 03:38:05;;;;;;;3.80;1.45;;;10.30;99.90;;;;;;6131090;23;20017;-83
2021/05/17 03:40:38;;;;;;;3.35;1.20;;;10.40;99.90;;;;;;6133904;23;20020;-83
2021/05/17 03:45:53;;;;;;;3.20;1.05;;;10.40;99.90;;;;;;6070734;23;20030;-82
2021/05/17 03:48:21;;;;;;;3.95;1.33;;;10.50;99.90;;;;;;6024160;23;20030;-82
2021/05/17 03:50:49;;;;;;;5.75;1.42;;;10.40;99.90;;;;;;6046043;23;20007;-82
2021/05/17 03:53:17;;;;;;;3.45;1.10;;;10.50;99.90;;;;;;6024876;23;20007;-82
2021/05/17 03:55:46;;;;;;;3.40;1.13;;;10.40;99.90;;;;;;6048146;23;20013;-82
2021/05/17 03:58:14;;;;;;;4.15;1.40;;;10.50;99.90;;;;;;6102914;23;20017;-82
2021/05/17 04:00:42;;;;;;;3.40;1.00;;;10.50;99.90;;;;;;6080866;23;20003;-82
2021/05/17 04:03:14;;;;;;;3.58;1.73;;;10.50;99.90;;;;;;6079931;23;20003;-82
2021/05/17 04:05:54;;;;;;;2.53;1.05;;;10.50;99.90;;;;;;6103507;23;20317;-82
2021/05/17 04:13:54;;;;;;;4.28;1.35;;;10.50;99.90;;;;;;6124532;23;20018;-82
2021/05/17 04:16:24;;;;;;;8.10;1.38;;;10.40;99.90;;;;;;6080297;23;20002;-82
2021/05/17 04:18:54;;;;;;;2.72;1.40;;;10.30;99.90;;;;;;6080037;23;20003;-83
2021/05/17 04:21:22;;;;;;;2.63;1.27;;;10.30;99.90;;;;;;6080843;23;20010;-82
2021/05/17 04:23:52;;;;;;;2.17;1.15;;;10.20;99.90;;;;;;6080267;23;20041;-82
2021/05/17 04:26:20;;;;;;;3.15;1.00;;;10.30;99.90;;;;;;6053999;23;20010;-82
2021/05/17 04:28:48;;;;;;;3.72;1.38;;;10.30;99.90;;;;;;6104116;23;20029;-83
2021/05/17 04:31:27;;;;;;;;;;;;;;;;;;;;;
2021/05/17 04:33:56;;;;;;;1.70;1.00;;;10.30;99.90;;;;;;6078961;23;20010;-82
2021/05/17 04:36:28;;;;;;;3.90;1.17;;;10.20;99.90;;;;;;6078663;23;20013;-81
2021/05/17 04:38:57;;;;;;;4.85;1.30;;;10.20;99.90;;;;;;6101694;23;20021;-81
2021/05/17 04:41:30;;;;;;;1.63;0.85;;;10.10;99.90;;;;;;6078414;23;20006;-82
2021/05/17 04:44:02;;;;;;;3.38;1.10;;;10.10;99.90;;;;;;6103031;23;20006;-82
2021/05/17 04:46:33;;;;;;;1.85;1.08;;;10.10;99.90;;;;;;6103382;23;20009;-83
2021/05/17 04:49:04;;;;;;;3.10;0.93;;;10.10;99.90;;;;;;6102727;23;20021;-82
2021/05/17 04:51:34;;;;;;;4.07;1.17;;;10.10;99.90;;;;;;6103164;23;20018;-82
2021/05/17 04:54:02;;;;;;;2.45;1.40;;;10.10;99.90;;;;;;6063058;23;20007;-79
2021/05/17 04:56:29;;;;;;;4.57;1.08;;;10.20;99.90;;;;;;6107898;23;20006;-81
2021/05/17 04:58:58;;;;;;;1.02;0.65;;;10.30;99.90;;;;;;6132147;23;20010;-81
2021/05/17 05:01:29;;;;;;;2.80;1.15;;;10.20;99.90;;;;;;6156307;23;20012;-82
2021/05/17 05:03:59;;;;;;;2.10;0.82;;;10.30;99.90;;;;;;6109386;23;20009;-81
2021/05/17 05:06:31;;;;;;;2.00;0.85;;;10.30;99.90;;;;;;6107580;23;20006;-82
2021/05/17 05:09:02;;;;;;;4.90;1.00;;;10.30;99.90;;;;;;6108549;23;20005;-82
2021/05/17 05:11:30;;;;;;;2.40;0.95;;;10.40;99.90;;;;;;6105326;23;20025;-81
2021/05/17 05:13:58;;;;;;;4.53;1.05;;;10.40;99.90;;;;;;6105044;23;20009;-82
2021/05/17 05:16:27;;;;;;;2.95;0.90;;;10.50;99.90;;;;;;6107235;23;20006;-83
2021/05/17 05:19:03;;;;;;;6.33;1.10;;;10.50;99.90;;;;;;6106915;23;20016;-84
2021/05/17 05:21:36;;;;;;;2.47;0.88;;;10.50;99.90;;;;;;6082987;23;20010;-82
2021/05/17 05:24:08;;;;;;;5.43;1.00;;;10.60;99.90;;;;;;6105464;23;20020;-81
2021/05/17 05:29:27;;;;;;;3.10;0.90;;;10.80;99.90;;;;;;6104851;23;20009;-82
2021/05/17 05:32:02;;;;;;;3.92;1.10;;;10.80;99.90;;;;;;6109191;23;20014;-83
2021/05/17 05:43:29;;;;;;;2.85;0.90;;;11.10;99.90;;;;;;6147059;23;20047;-84
2021/05/17 05:48:52;;;;;;;2.13;1.23;;;11.30;99.90;;;;;;6151156;23;20021;-82
2021/05/17 05:51:21;;;;;;;;;;;11.40;99.90;;;;;;6109501;23;20016;-83
2021/05/17 05:53:51;;;;;;;6.13;1.00;;;11.50;99.90;;;;;;6108434;23;19920;-82
2021/05/17 05:56:19;;;;;;;1.42;0.88;;;11.50;99.90;;;;;;6109040;23;20013;-82
2021/05/17 05:58:49;;;;;;;0.93;0.55;;;11.60;99.90;;;;;;6085087;23;19998;-84
2021/05/17 06:07:10;;;;;;;1.75;0.95;;;11.70;99.90;;;;;;6144383;23;20018;-82
2021/05/17 06:09:52;;;;;;;2.25;1.05;;;11.80;99.90;;;;;;6108239;23;20009;-83
2021/05/17 06:12:26;;;;;;;3.85;1.27;;;12.00;99.90;;;;;;6108301;23;20017;-84
2021/05/17 06:41:36;;;;;;;2.05;0.70;;;12.20;99.90;;;;;;6063845;23;20034;-83
2021/05/17 06:44:05;;;;;;;2.45;1.15;;;12.40;99.90;;;;;;6066606;23;20014;-82
2021/05/17 07:14:00;;;;;;;2.10;0.70;;;12.60;99.90;;;;;;6154637;23;20029;-84
2021/05/17 07:16:30;;;;;;;1.88;0.90;;;12.50;99.90;;;;;;6108443;23;20014;-83
2021/05/17 07:18:58;;;;;;;4.07;1.15;;;12.50;99.90;;;;;;6011281;23;20082;-83
2021/05/17 07:24:13;;;;;;;3.72;1.35;;;12.90;99.90;;;;;;6060861;23;20031;-82
2021/05/17 07:26:42;;;;;;;3.30;0.90;;;13.00;99.90;;;;;;6079725;23;20017;-83
2021/05/17 07:29:11;;;;;;;3.67;0.88;;;12.90;99.90;;;;;;6012365;23;20044;-84
2021/05/17 07:31:40;;;;;;;;;;;13.10;99.90;;;;;;6102788;23;20010;-85
2021/05/17 07:34:08;;;;;;;4.32;1.00;;;13.10;99.90;;;;;;6079332;23;19913;-83
2021/05/17 07:36:36;;;;;;;2.97;1.00;;;13.30;99.90;;;;;;6073419;23;20014;-87
2021/05/17 07:42:00;;;;;;;2.42;1.00;;;13.60;99.90;;;;;;6119733;23;20042;-87
2021/05/17 07:44:28;;;;;;;2.03;0.85;;;13.70;99.90;;;;;;6125144;23;20010;-88
2021/05/17 07:46:56;;;;;;;2.70;1.10;;;13.90;99.90;;;;;;6132579;23;20002;-83
2021/05/17 07:49:34;;;;;;;5.03;1.70;;;13.80;99.90;;;;;;6108610;23;20006;-84
2021/05/17 07:54:57;;;;;;;1.90;0.68;;;13.60;99.90;;;;;;6131883;23;20057;-80
2021/05/17 07:57:26;;;;;;;2.28;0.95;;;13.50;99.90;;;;;;6115971;23;20014;-80
2021/05/17 07:59:54;;;;;;;3.17;1.02;;;13.60;99.90;;;;;;6119506;23;20017;-80
2021/05/17 08:02:22;;;;;;;2.30;1.05;;;13.70;99.90;;;;;;6096938;23;20006;-81
2021/05/17 08:04:50;;;;;;;3.05;1.08;;;13.80;99.90;;;;;;6123217;23;20010;-80
2021/05/17 08:07:18;;;;;;;;;;;13.90;99.90;;;;;;6121164;23;20025;-83
2021/05/17 08:09:45;;;;;;;2.60;0.95;;;14.00;99.90;;;;;;6091948;23;19936;-82
2021/05/17 08:12:15;;;;;;;4.65;1.25;;;14.20;99.90;;;;;;6110438;23;20046;-83
2021/05/17 08:14:43;;;;;;;2.78;1.08;;;14.40;99.90;;;;;;6065577;23;20034;-82
2021/05/17 08:17:13;;;;;;;4.82;1.00;;;14.50;99.90;;;;;;6110454;23;20054;-83
2021/05/17 08:19:41;;;;;;;2.65;0.95;;;14.80;99.90;;;;;;6089243;23;20042;-83
2021/05/17 08:22:08;;;;;;;2.20;1.00;;;14.90;99.90;;;;;;6112700;23;20010;-84
2021/05/17 08:24:36;;;;;;;2.65;1.15;;;15.00;99.90;;;;;;6115652;23;20093;-84
2021/05/17 08:27:09;;;;;;;3.13;0.85;;;15.10;99.90;;;;;;6121077;23;20006;-85
2021/05/17 08:29:39;;;;;;;3.60;1.10;;;15.20;99.90;;;;;;6111189;23;20046;-87
2021/05/17 08:32:09;;;;;;;3.60;1.30;;;15.20;99.90;;;;;;6137668;23;20362;-87
2021/05/17 08:34:37;;;;;;;2.78;0.90;;;15.10;99.90;;;;;;6137224;23;20022;-85
2021/05/17 08:37:04;;;;;;;2.92;0.80;;;15.10;99.90;;;;;;6122227;23;20013;-82
2021/05/17 08:39:32;;;;;;;4.72;1.20;;;14.90;99.90;;;;;;6094360;23;20017;-86
2021/05/17 08:42:01;;;;;;;2.65;0.88;;;14.90;99.90;;;;;;6115030;23;20021;-82
2021/05/17 08:44:29;;;;;;;3.92;0.90;;;15.00;99.90;;;;;;6101299;23;20006;-83
2021/05/17 08:46:57;;;;;;;2.95;0.80;;;15.00;99.90;;;;;;6126805;23;20010;-82
2021/05/17 08:49:25;;;;;;;7.25;1.20;;;14.90;99.90;;;;;;6125695;23;20017;-83
2021/05/17 08:51:52;;;;;;;3.55;1.35;;;14.90;99.90;;;;;;6151813;23;20009;-83
2021/05/17 08:54:24;;;;;;;3.92;1.38;;;15.10;99.90;;;;;;6089176;23;20054;-81
2021/05/17 08:56:52;;;;;;;4.85;1.08;;;15.40;99.90;;;;;;6136863;23;20041;-83
2021/05/17 08:59:22;;;;;;;3.78;1.10;;;15.50;99.90;;;;;;6111635;23;20042;-87
2021/05/17 09:01:49;;;;;;;1.83;0.85;;;15.40;99.90;;;;;;6111196;23;20050;-85
2021/05/17 09:04:20;;;;;;;4.13;1.65;;;15.50;99.90;;;;;;6113475;23;20045;-84
2021/05/17 09:06:54;;;;;;;4.35;1.00;;;15.60;99.90;;;;;;6111658;23;20349;-82
2021/05/17 09:09:27;;;;;;;2.65;0.80;;;15.70;99.90;;;;;;6094011;23;20049;-82
2021/05/17 09:11:58;;;;;;;3.72;1.10;;;15.50;99.90;;;;;;6138822;23;20049;-80
2021/05/17 09:14:27;;;;;;;1.63;0.82;;;15.70;99.90;;;;;;6143995;23;20013;-81
2021/05/17 09:16:58;;;;;;;3.55;1.02;;;16.10;99.90;;;;;;6111364;23;20073;-80
2021/05/17 09:19:27;;;;;;;2.53;0.90;;;16.30;99.90;;;;;;6092646;23;20018;-80
2021/05/17 09:22:05;;;;;;;;;;;16.20;99.90;;;;;;6120245;23;20010;-81
2021/05/17 09:24:46;;;;;;;3.25;1.02;;;16.20;99.30;;;;;;6138416;23;19932;-81
2021/05/17 09:27:19;;;;;;;5.75;1.35;;;16.20;98.70;;;;;;6138148;23;20037;-81
2021/05/17 09:29:48;;;;;;;2.10;0.80;;;16.10;99.10;;;;;;6143091;23;20024;-80
2021/05/17 09:32:22;;;;;;;4.78;1.17;;;16.10;99.10;;;;;;6116820;23;20010;-80
2021/05/17 09:35:02;;;;;;;3.47;1.45;;;16.00;99.90;;;;;;6090964;23;20042;-79
2021/05/17 09:37:45;;;;;;;8.23;0.93;;;15.80;99.90;;;;;;6112936;23;20041;-80
2021/05/17 09:40:21;;;;;;;2.92;0.93;;;15.60;99.90;;;;;;6112850;23;20050;-80
2021/05/17 09:43:03;;;;;;;3.90;1.50;;;16.00;99.90;;;;;;6111189;23;20285;-82
2021/05/17 09:45:32;;;;;;;3.28;0.98;;;16.60;99.60;;;;;;6087543;23;20042;-81
2021/05/17 09:47:59;;;;;;;2.38;1.08;;;16.60;95.90;;;;;;6094567;23;20018;-80
2021/05/17 09:50:27;;;;;;;1.45;0.90;;;16.00;99.50;;;;;;6090670;23;20037;-81
2021/05/17 09:52:55;;;;;;;4.13;1.20;;;16.20;98.90;;;;;;6093018;23;20014;-82
2021/05/17 09:55:25;;;;;;;4.25;1.10;;;16.60;98.30;;;;;;6119218;23;20010;-85
2021/05/17 09:57:52;;;;;;;4.25;0.98;;;16.70;98.30;;;;;;6141572;23;20030;-88
2021/05/17 10:00:23;;;;;;;5.97;1.15;;;16.90;96.50;;;;;;6113795;23;20062;-87
2021/05/17 10:02:52;;;;;;;7.68;1.30;;;17.30;95.60;;;;;;6111895;23;20020;-83
2021/05/17 10:05:22;;;;;;;2.88;1.05;;;17.10;93.20;;;;;;6098845;23;20302;-86
2021/05/17 10:07:55;;;;;;;2.90;0.90;;;17.20;93.80;;;;;;6121752;23;20013;-83
2021/05/17 10:10:28;;;;;;;5.47;1.10;;;17.00;93.20;;;;;;6127956;23;20010;-83
2021/05/17 10:12:58;;;;;;;4.43;0.98;;;16.70;94.40;;;;;;6103055;23;20010;-83
2021/05/17 10:15:27;;;;;;;3.95;0.90;;;16.90;95.20;;;;;;6116304;23;20017;-87
2021/05/17 10:17:57;;;;;;;4.68;0.90;;;17.30;94.80;;;;;;6110845;23;20073;-87
2021/05/17 10:20:28;;;;;;;3.08;1.00;;;17.90;91.70;;;;;;6086025;23;20353;-84
2021/05/17 10:22:58;;;;;;;4.65;1.10;;;18.30;90.00;;;;;;6111048;23;20039;-87
2021/05/17 10:25:28;;;;;;;5.35;1.70;;;18.50;89.00;;;;;;6136055;23;20053;-85
2021/05/17 10:28:00;;;;;;;7.07;1.30;;;18.60;87.80;;;;;;6086479;23;20042;-85
2021/05/17 10:30:31;;;;;;;4.10;1.30;;;18.50;89.10;;;;;;6110098;23;20307;-86
2021/05/17 10:33:00;;;;;;;3.35;1.00;;;18.60;89.00;;;;;;6135778;23;20061;-85
2021/05/17 10:35:34;;;;;;;3.92;1.30;;;19.20;88.60;;;;;;6113037;23;20306;-82
2021/05/17 10:38:19;;;;;;;3.35;1.00;;;20.60;76.90;;;;;;6111030;23;20046;-87
2021/05/17 10:40:51;;;;;;;6.07;1.30;;;20.20;69.70;;;;;;6111027;23;20049;-85
2021/05/17 10:44:01;;;;;;;5.78;1.30;;;20.30;71.40;;;;;;6087054;23;20042;-86
2021/05/17 10:46:41;;;;;;;3.22;1.10;;;20.10;71.20;;;;;;6135816;23;20046;-85
2021/05/17 10:49:30;;;;;;;3.92;0.98;;;19.70;73.70;;;;;;6138581;23;20086;-85
2021/05/17 10:52:23;;;;;;;6.13;1.20;;;19.30;76.90;;;;;;6114400;23;20017;-84
2021/05/17 10:55:06;;;;;;;2.70;1.20;;;19.40;79.20;;;;;;6115373;23;20021;-83
2021/05/17 10:58:06;;;;;;;3.65;1.00;;;20.50;72.90;;;;;;6118438;23;20014;-83
2021/05/17 11:00:38;;;;;;;2.92;1.00;;;21.50;66.30;;;;;;6116130;23;20032;-84
2021/05/17 11:03:09;;;;;;;4.07;1.10;;;20.90;65.60;;;;;;6112402;23;20234;-85
2021/05/17 11:05:37;;;;;;;4.15;1.00;;;20.40;68.40;;;;;;6114935;23;20046;-85
2021/05/17 11:08:11;;;;;;;4.47;0.80;;;19.80;69.10;;;;;;6119489;23;20239;-86
2021/05/17 11:10:45;;;;;;;4.70;1.23;;;19.10;74.20;;;;;;6118068;23;20075;-88
2021/05/17 11:13:17;;;;;;;5.90;1.10;;;18.10;87.70;;;;;;6144643;23;20010;-87
2021/05/17 11:15:57;;;;;;;3.58;1.30;;;17.80;92.00;;;;;;6088364;23;20046;-86
2021/05/17 11:18:34;;;;;;;4.93;1.20;;;17.80;92.80;;;;;;6120188;23;20294;-87
2021/05/17 11:21:06;;;;;;;;;;;18.50;93.90;;;;;;6094152;23;20014;-87
2021/05/17 11:23:54;;;;;;;6.93;1.20;;;19.40;85.10;;;;;;6095515;23;19932;-87
2021/05/17 11:26:25;;;;;;;3.85;1.30;;;18.00;91.20;;;;;;6107475;23;20321;-83
2021/05/17 11:29:12;;;;;;;6.50;1.23;;;17.20;95.90;;;;;;6104607;23;20014;-79
2021/05/17 11:31:48;;;;;;;10.70;1.40;;;16.90;98.40;;;;;;6150246;23;20021;-89
2021/05/17 11:34:21;;;;;;;2.60;1.10;;;17.60;97.70;;;;;;6119160;23;20021;-89
2021/05/17 11:36:52;;;;;;;4.07;1.02;;;18.80;91.10;;;;;;6117130;23;20302;-89
2021/05/17 11:39:25;;;;;;;3.60;1.08;;;20.00;83.80;;;;;;6089232;23;20042;-89
2021/05/17 11:42:04;;;;;;;2.63;0.80;;;20.60;70.60;;;;;;6093986;23;20006;-87
2021/05/17 11:44:39;;;;;;;5.32;1.25;;;19.80;70.40;;;;;;6094957;23;20014;-90
2021/05/17 11:47:11;;;;;;;3.92;0.57;;;19.10;72.80;;;;;;6116527;23;20010;-89
2021/05/17 11:50:08;;;;;;;3.53;1.25;;;18.40;80.30;;;;;;6102898;23;20009;-84
2021/05/17 11:52:36;;;;;;;3.03;0.70;;;17.20;90.40;;;;;;6119098;23;20014;-89
2021/05/17 11:55:12;;;;;;;3.72;0.80;;;17.90;87.90;;;;;;6089448;23;20018;-85
2021/05/17 11:58:07;;;;;;;1.70;0.63;;;19.20;77.90;;;;;;6028229;23;20055;-86
2021/05/17 12:00:35;;;;;;;4.72;1.10;;;22.00;60.70;;;;;;6026613;23;20035;-85
2021/05/17 12:03:18;;;;;;;3.42;0.80;;;23.30;54.70;;;;;;6000351;23;20051;-86
2021/05/17 12:05:48;;;;;;;4.35;0.90;;;22.50;54.70;;;;;;6025932;23;20047;-89
2021/05/17 12:08:16;;;;;;;3.28;0.63;;;20.60;60.00;;;;;;6027646;23;20055;-88
2021/05/17 12:10:46;;;;;;;2.53;0.70;;;20.70;60.20;;;;;;6024406;23;20053;-87
2021/05/17 12:16:34;;;;;;;3.45;0.75;;;21.60;58.20;;;;;;6047525;23;20363;-84
2021/05/17 12:19:03;;;;;;;2.40;0.68;;;22.70;57.00;;;;;;6024555;23;20055;-84
2021/05/17 12:21:32;;;;;;;1.13;0.40;;;24.80;50.20;;;;;;6050202;23;20047;-89
2021/05/17 12:24:00;;;;;;;6.95;0.60;;;24.00;47.40;;;;;;6053549;23;20077;-85
2021/05/17 12:26:51;;;;;;;0.60;0.40;;;24.00;47.70;;;;;;6025826;23;20044;-89
2021/05/17 12:29:21;;;;;;;0.30;0.25;;;22.90;49.30;;;;;;6088866;23;20050;-89
2021/05/17 12:31:49;;;;;;;1.75;0.50;;;22.10;51.80;;;;;;6088940;23;20359;-87
2021/05/17 12:34:18;;;;;;;1.75;0.55;;;21.80;53.70;;;;;;6112327;23;20045;-86
2021/05/17 12:36:48;;;;;;;3.85;0.88;;;21.20;54.10;;;;;;6112238;23;20041;-91
2021/05/17 12:39:21;;;;;;;3.55;0.50;;;20.20;57.80;;;;;;6113630;23;20054;-89
2021/05/17 12:41:51;;;;;;;0.95;0.45;;;20.00;59.70;;;;;;6118200;23;20021;-84
2021/05/17 12:47:38;;;;;;;0.22;0.20;;;18.20;68.60;;;;;;6023556;23;20019;-81
2021/05/17 12:50:16;;;;;;;3.28;1.33;;;17.80;74.00;;;;;;6106713;23;20010;-86
2021/05/17 12:52:44;;;;;;;0.30;0.30;;;18.20;76.50;;;;;;6065922;23;20257;-82
2021/05/17 12:55:18;;;;;;;1.13;0.40;;;18.50;72.90;;;;;;6114038;23;20277;-80
2021/05/17 12:58:06;;;;;;;2.55;0.82;;;18.60;73.50;;;;;;6138018;23;20089;-82
2021/05/17 13:00:41;;;;;;;0.75;0.43;;;18.80;72.50;;;;;;6136637;23;20096;-80
2021/05/17 13:03:15;;;;;;;3.13;0.60;;;18.70;74.00;;;;;;6134700;23;20049;-81
2021/05/17 13:06:01;;;;;;;2.20;0.68;;;19.20;72.10;;;;;;6134531;23;20058;-81
2021/05/17 13:08:51;;;;;;;0.83;0.50;;;20.40;64.60;;;;;;6109175;23;20046;-85
2021/05/17 13:11:33;;;;;;;4.20;0.47;;;21.00;58.30;;;;;;6134891;23;20050;-87
2021/05/17 13:14:07;;;;;;;2.67;0.60;;;21.30;56.70;;;;;;6084244;23;20071;-85
2021/05/17 13:16:37;;;;;;;0.40;0.35;;;22.50;52.80;;;;;;6112599;23;20038;-85
2021/05/17 13:30:52;;;;;;;2.88;0.30;;;19.30;58.00;;;;;;6113450;23;20050;-85
2021/05/17 13:33:28;;;;;;;2.33;0.73;;;18.00;82.10;;;;;;6100724;23;20017;-85
2021/05/17 13:35:59;;;;;;;0.90;0.35;;;17.20;95.70;;;;;;6100153;23;20013;-86
2021/05/17 13:38:29;;;;;;;0.75;0.57;;;16.70;99.10;;;;;;6129920;23;20014;-84
2021/05/17 13:40:58;;;;;;;0.43;0.40;;;16.20;99.90;;;;;;6108667;23;20005;-83
2021/05/17 13:43:30;;;;;;;0.43;0.25;;;15.80;99.90;;;;;;6109594;23;20008;-82
2021/05/17 13:49:07;;;;;;;2.97;0.50;;;15.60;99.90;;;;;;6046696;23;19921;-83
2021/05/17 13:51:39;;;;;;;2.08;0.60;;;15.40;99.90;;;;;;6068799;23;20014;-84
2021/05/17 13:54:07;;;;;;;1.60;0.57;;;15.40;99.90;;;;;;6023606;23;19996;-83
2021/05/17 13:59:33;;;;;;;2.38;0.55;;;15.80;99.90;;;;;;6124098;23;20054;-87
2021/05/17 14:02:06;;;;;;;4.55;1.17;;;16.20;99.90;;;;;;6072255;23;20047;-86
2021/05/17 14:04:33;;;;;;;1.27;0.57;;;16.30;99.90;;;;;;6090517;23;20009;-91
2021/05/17 14:07:04;;;;;;;9.02;1.85;;;16.70;99.90;;;;;;6108582;23;20046;-89
2021/05/17 14:09:32;;;;;;;4.82;0.90;;;16.70;99.90;;;;;;6111818;23;20010;-86
2021/05/17 14:12:00;;;;;;;2.65;0.77;;;16.70;99.90;;;;;;6088932;23;20244;-81
2021/05/17 14:14:28;;;;;;;4.77;1.13;;;16.70;99.90;;;;;;6111714;23;20038;-80
2021/05/17 14:17:03;;;;;;;2.63;0.80;;;16.70;99.90;;;;;;6113347;23;20408;-89
2021/05/17 14:19:33;;;;;;;3.05;0.52;;;16.80;99.90;;;;;;6094814;23;20006;-85
2021/05/17 14:22:04;;;;;;;1.42;0.60;;;16.60;99.90;;;;;;6128395;23;20009;-83
2021/05/17 14:27:30;;;;;;;3.15;0.70;;;16.10;99.90;;;;;;6138664;23;20060;-86
2021/05/17 14:29:59;;;;;;;5.43;0.93;;;16.50;99.90;;;;;;6101924;23;20002;-85
2021/05/17 14:32:27;;;;;;;1.38;0.50;;;17.00;99.90;;;;;;6081518;23;20016;-89
2021/05/17 14:51:27;;;;;;;1.37;0.80;;;17.20;99.90;;;;;;5991749;23;20034;-82
2021/05/17 14:56:52;;;;;;;2.25;0.65;;;16.30;99.90;;;;;;6118489;23;20029;-92
2021/05/17 14:59:20;;;;;;;1.92;0.95;;;16.90;97.30;;;;;;6083957;23;20050;-86
2021/05/17 15:02:01;;;;;;;3.33;0.50;;;17.10;96.60;;;;;;6084129;23;20351;-89
2021/05/17 15:04:37;;;;;;;0.93;0.40;;;17.40;91.80;;;;;;6060784;23;20357;-89
2021/05/17 15:07:06;;;;;;;1.20;0.50;;;17.40;90.00;;;;;;6060393;23;20255;-89
2021/05/17 15:09:34;;;;;;;0.52;0.40;;;17.20;89.90;;;;;;6086179;23;20101;-92
2021/05/17 15:12:02;;;;;;;2.42;0.68;;;16.70;90.30;;;;;;6089890;23;20066;-90
2021/05/17 15:14:30;;;;;;;2.95;0.70;;;16.50;91.80;;;;;;6058745;23;20050;-88
2021/05/17 15:16:58;;;;;;;;;;;16.30;92.50;;;;;;6061866;23;20326;-92
2021/05/17 15:19:26;;;;;;;4.30;0.57;;;16.10;93.60;;;;;;6060860;23;19925;-90
2021/05/17 15:21:53;;;;;;;2.40;0.60;;;16.00;94.60;;;;;;6091565;23;20018;-88
2021/05/17 15:24:21;;;;;;;1.75;0.65;;;15.80;96.20;;;;;;6089106;23;20017;-90
2021/05/17 15:26:49;;;;;;;2.90;0.50;;;15.70;96.10;;;;;;6040847;23;20017;-91
2021/05/17 15:29:19;;;;;;;0.57;0.40;;;15.80;94.30;;;;;;6061058;23;20046;-90
2021/05/17 15:31:46;;;;;;;7.47;0.90;;;15.90;95.00;;;;;;6061263;23;20051;-88
2021/05/17 15:34:13;;;;;;;1.48;0.60;;;16.10;95.10;;;;;;6116154;23;20081;-90
2021/05/17 15:36:53;;;;;;;2.08;0.63;;;16.00;94.80;;;;;;6077721;23;20313;-85
2021/05/17 15:39:35;;;;;;;3.47;0.63;;;15.70;96.00;;;;;;6103148;23;20001;-85
2021/05/17 15:42:28;;;;;;;3.58;0.88;;;15.50;96.80;;;;;;6069984;23;20029;-85
2021/05/17 15:44:58;;;;;;;5.30;0.93;;;15.50;97.20;;;;;;6043081;23;20248;-87
2021/05/17 15:48:01;;;;;;;5.82;0.80;;;15.60;97.30;;;;;;6069370;23;20014;-86
2021/05/17 15:56:29;;;;;;;3.53;0.65;;;15.40;99.60;;;;;;6117267;23;20050;-87
2021/05/17 15:58:59;;;;;;;3.17;0.70;;;15.50;99.60;;;;;;6100146;23;20013;-88
2021/05/17 16:01:27;;;;;;;1.75;0.85;;;15.60;99.90;;;;;;6095622;23;20306;-89
2021/05/17 16:03:57;;;;;;;5.85;1.05;;;15.70;99.90;;;;;;6143625;23;20020;-88
2021/05/17 16:06:27;;;;;;;4.72;1.60;;;16.00;99.90;;;;;;6120163;23;20010;-90
2021/05/17 16:08:56;;;;;;;2.33;0.63;;;16.70;99.40;;;;;;6116236;23;20042;-89
2021/05/17 16:12:24;;;;;;;3.07;0.70;;;17.50;96.50;;;;;;6118356;23;20041;-93
2021/05/17 16:15:00;;;;;;;2.65;0.80;;;19.50;87.40;;;;;;6117748;23;20054;-91
2021/05/17 16:27:09;;;;;;;3.75;0.80;;;21.50;61.80;;;;;;6147007;23;20009;-94
2021/05/17 16:29:37;;;;;;;0.98;0.70;;;21.30;63.10;;;;;;6120008;23;20029;-95
2021/05/17 16:32:08;;;;;;;2.63;0.80;;;20.70;63.90;;;;;;6100205;23;20017;-96
2021/05/17 16:35:10;;;;;;;2.58;0.73;;;20.50;64.60;;;;;;6097485;23;20014;-92
2021/05/17 16:38:46;;;;;;;;;;;;;;;;;;;;;
2021/05/17 16:45:18;;;;;;;1.38;0.50;;;18.10;91.20;;;;;;6050127;23;20018;-89
2021/05/17 16:48:17;;;;;;;3.03;1.00;;;17.40;96.00;;;;;;6043155;23;20056;-87
2021/05/17 16:50:48;;;;;;;0.82;0.40;;;17.00;97.50;;;;;;6037419;23;20010;-88
2021/05/17 16:53:15;;;;;;;3.30;0.90;;;16.90;97.00;;;;;;6056388;23;20098;-90
2021/05/17 16:55:43;;;;;;;2.80;0.60;;;17.20;96.50;;;;;;6056481;23;20046;-91
2021/05/17 16:58:13;;;;;;;1.80;0.80;;;18.30;92.40;;;;;;6078482;23;20394;-90
2021/05/17 17:00:42;;;;;;;1.95;0.73;;;19.00;87.40;;;;;;6055123;23;20040;-88
2021/05/17 17:03:12;;;;;;;1.38;0.40;;;19.40;79.60;;;;;;6078447;23;20033;-89
2021/05/17 17:05:41;;;;;;;0.55;0.38;;;19.10;77.70;;;;;;6054432;23;20047;-85
2021/05/17 17:08:37;;;;;;;2.75;0.55;;;19.10;76.50;;;;;;6060966;23;20069;-88
2021/05/17 17:11:07;;;;;;;7.30;0.97;;;19.20;76.60;;;;;;6055572;23;20046;-90
2021/05/17 17:13:35;;;;;;;2.92;0.73;;;19.50;72.90;;;;;;6052491;23;20247;-90
2021/05/17 17:16:08;;;;;;;3.33;0.60;;;20.60;65.20;;;;;;6085776;23;20042;-90
2021/05/17 17:18:37;;;;;;;1.08;0.57;;;20.20;63.90;;;;;;6111401;23;20045;-91
2021/05/17 17:21:05;;;;;;;3.90;0.63;;;20.60;63.70;;;;;;6137089;23;20038;-88
2021/05/17 17:23:34;;;;;;;5.53;0.75;;;20.90;62.10;;;;;;6087549;23;20049;-90
2021/05/17 17:26:03;;;;;;;2.47;0.73;;;19.70;66.20;;;;;;6131707;23;20270;-90
2021/05/17 17:28:33;;;;;;;1.65;0.60;;;18.80;71.60;;;;;;6112940;23;20079;-91
2021/05/17 17:31:03;;;;;;;1.67;0.50;;;18.00;76.00;;;;;;6064177;23;20049;-90
2021/05/17 17:33:33;;;;;;;2.28;0.70;;;17.50;80.30;;;;;;6088921;23;20092;-90
2021/05/17 17:36:04;;;;;;;4.43;0.47;;;17.10;87.20;;;;;;6094254;23;20019;-84
2021/05/17 17:38:32;;;;;;;;;;;16.50;91.30;;;;;;6074878;23;20010;-82
2021/05/17 17:41:03;;;;;;;1.10;0.63;;;16.30;93.30;;;;;;6122665;23;19917;-88
2021/05/17 17:43:37;;;;;;;3.20;0.73;;;16.20;94.10;;;;;;6047352;23;20014;-87
2021/05/17 17:49:31;;;;;;;1.45;0.50;;;16.00;93.40;;;;;;6092602;23;19945;31
2021/05/17 17:52:03;;;;;;;1.58;0.60;;;15.90;94.10;;;;;;6040916;23;20007;-84
2021/05/17 17:54:30;;;;;;;3.05;0.95;;;15.80;94.50;;;;;;6015766;23;20019;-86
2021/05/17 17:57:02;;;;;;;1.83;0.70;;;15.90;94.00;;;;;;6014289;23;20015;-85
2021/05/17 17:59:35;;;;;;;1.42;0.47;;;15.80;94.30;;;;;;6006279;23;20044;-88
2021/05/17 18:02:06;;;;;;;2.45;1.17;;;15.90;94.10;;;;;;6032650;23;20016;-84
2021/05/17 18:04:34;;;;;;;1.92;0.45;;;15.90;93.30;;;;;;6051537;23;20030;-86
2021/05/17 18:07:02;;;;;;;1.67;0.73;;;15.80;93.50;;;;;;6097650;23;20021;-88
2021/05/17 18:09:30;;;;;;;4.40;0.50;;;15.80;94.10;;;;;;6114329;23;20246;-87
2021/05/17 18:12:00;;;;;;;1.05;0.40;;;15.70;93.50;;;;;;6073155;23;20047;-85